Time;durP1;ratioP1;P1;durP2;ratioP2;P2;SDS_P1;SDS_P2;PMS_P1;PMS_P2;Temp;Humidity;BMP_temperature;BMP_pressure;BME280_temperature;BME280_humidity;BME280_pressure;Samples;Min_cycle;Max_cycle;Signal;HPM_P1;HPM_P2
2023/02/20 00:00:29;;;;;;;3.10;2.10;;;17.00;53.30;;;;;;5012755;28;20747;-68
2023/02/20 00:02:55;;;;;;;2.30;1.83;;;17.00;53.30;;;;;;5012785;28;20252;-69
2023/02/20 00:05:21;;;;;;;2.63;2.10;;;17.00;53.30;;;;;;5012528;28;20447;-68
2023/02/20 00:07:46;;;;;;;2.53;1.90;;;17.00;53.30;;;;;;5012409;28;20458;-68
2023/02/20 00:10:13;;;;;;;2.03;1.83;;;16.90;53.20;;;;;;5012408;28;20668;-69
2023/02/20 00:12:39;;;;;;;2.00;1.80;;;17.00;53.30;;;;;;5012174;28;20928;-68
2023/02/20 00:15:05;;;;;;;2.03;1.83;;;17.00;53.30;;;;;;5011070;28;20415;-69
2023/02/20 00:17:31;;;;;;;2.27;1.87;;;16.90;53.20;;;;;;5011111;28;20207;-68
2023/02/20 00:19:56;;;;;;;1.83;1.63;;;17.00;53.30;;;;;;5011229;28;20428;-68
2023/02/20 00:22:23;;;;;;;1.60;1.50;;;17.00;53.30;;;;;;5012079;28;20560;-69
2023/02/20 00:24:49;;;;;;;2.53;1.80;;;17.00;53.30;;;;;;5012316;28;20196;-68
2023/02/20 00:27:14;;;;;;;2.60;1.50;;;17.00;53.30;;;;;;5011771;28;20923;-68
2023/02/20 00:29:40;;;;;;;2.27;1.70;;;16.90;53.20;;;;;;5012380;28;20169;-68
2023/02/20 00:32:06;;;;;;;1.40;1.30;;;16.90;53.20;;;;;;5010562;28;20245;-67
2023/02/20 00:34:31;;;;;;;1.70;1.60;;;16.90;53.10;;;;;;5010987;28;20641;-67
2023/02/20 00:36:57;;;;;;;1.70;1.60;;;16.90;53.10;;;;;;5012316;28;20173;-67
2023/02/20 00:39:23;;;;;;;2.23;1.60;;;16.90;53.20;;;;;;5012165;28;20196;-67
2023/02/20 00:41:49;;;;;;;2.23;1.57;;;16.90;53.20;;;;;;5012131;28;20176;-67
2023/02/20 00:44:15;;;;;;;2.10;1.70;;;16.90;53.10;;;;;;5012111;28;20503;-67
2023/02/20 00:46:40;;;;;;;2.10;1.50;;;16.90;53.10;;;;;;5012376;28;20179;-67
2023/02/20 00:49:06;;;;;;;2.40;1.57;;;16.90;53.10;;;;;;5012345;28;20777;-67
2023/02/20 00:51:32;;;;;;;2.53;1.77;;;16.90;53.20;;;;;;5012266;28;20171;-67
2023/02/20 00:53:58;;;;;;;2.03;1.70;;;16.90;53.10;;;;;;5012434;28;20161;-67
2023/02/20 00:56:24;;;;;;;2.23;1.67;;;16.90;53.10;;;;;;5011824;28;20757;-66
2023/02/20 00:58:49;;;;;;;1.77;1.37;;;16.90;53.10;;;;;;5010878;28;20439;-66
2023/02/20 01:01:15;;;;;;;2.43;1.47;;;16.90;53.10;;;;;;5011225;28;20632;-66
2023/02/20 01:03:41;;;;;;;2.43;1.93;;;16.90;53.10;;;;;;5011491;28;20645;-67
2023/02/20 01:06:07;;;;;;;1.57;1.37;;;16.90;53.10;;;;;;5011704;28;20203;-67
2023/02/20 01:08:32;;;;;;;1.73;1.60;;;16.90;53.10;;;;;;5011743;28;20451;-67
2023/02/20 01:10:58;;;;;;;2.17;1.57;;;16.90;53.10;;;;;;5011942;28;20200;-67
2023/02/20 01:13:24;;;;;;;2.00;1.63;;;16.90;53.10;;;;;;5011078;28;20176;-68
2023/02/20 01:15:50;;;;;;;1.73;1.63;;;16.90;53.10;;;;;;5011107;28;20549;-68
2023/02/20 01:18:16;;;;;;;2.37;1.50;;;16.90;53.10;;;;;;5010996;28;20423;-68
2023/02/20 01:20:42;;;;;;;2.10;1.60;;;16.90;53.10;;;;;;5011157;28;20256;-68
2023/02/20 01:23:07;;;;;;;3.03;1.80;;;16.90;53.10;;;;;;5011023;28;20439;-68
2023/02/20 01:25:33;;;;;;;1.80;1.60;;;16.90;53.10;;;;;;5010969;28;20196;-68
2023/02/20 01:27:59;;;;;;;2.20;1.70;;;16.90;53.00;;;;;;5011102;28;20212;-68
2023/02/20 01:30:24;;;;;;;2.90;1.50;;;16.90;53.00;;;;;;5011058;28;20690;-68
2023/02/20 01:32:50;;;;;;;1.83;1.43;;;16.90;53.10;;;;;;5011049;28;20210;-68
2023/02/20 01:35:16;;;;;;;6.23;1.63;;;16.90;53.00;;;;;;5010805;28;20207;-68
2023/02/20 01:37:42;;;;;;;2.63;1.93;;;16.90;53.00;;;;;;5010888;28;20200;-68
2023/02/20 01:40:15;;;;;;;3.23;1.97;;;16.90;53.00;;;;;;5009441;28;20770;-68
2023/02/20 01:42:40;;;;;;;2.50;1.63;;;16.90;53.00;;;;;;5009554;28;20408;-68
2023/02/20 01:45:21;;;;;;;1.70;1.53;;;16.90;53.00;;;;;;5010795;28;20458;-68
2023/02/20 01:47:55;;;;;;;2.77;1.97;;;16.90;53.00;;;;;;5015246;28;20658;-69
2023/02/20 01:50:29;;;;;;;2.90;1.50;;;16.90;53.00;;;;;;5015751;28;20408;-69
2023/02/20 01:53:00;;;;;;;2.50;1.93;;;16.80;53.00;;;;;;5015614;28;20404;-69
2023/02/20 01:55:36;;;;;;;1.93;1.47;;;16.80;52.90;;;;;;5014890;28;20411;-69
2023/02/20 01:58:09;;;;;;;2.17;1.97;;;16.80;52.90;;;;;;5014905;28;20516;-69
2023/02/20 02:00:35;;;;;;;2.53;1.63;;;16.80;52.90;;;;;;5012177;28;20500;-69
2023/02/20 02:03:13;;;;;;;1.83;1.63;;;16.80;52.90;;;;;;5011005;28;20995;-69
2023/02/20 02:05:45;;;;;;;1.83;1.23;;;16.80;52.90;;;;;;5010855;28;20455;-68
2023/02/20 02:08:13;;;;;;;1.70;1.53;;;16.80;52.90;;;;;;5010422;28;20563;-69
2023/02/20 02:10:55;;;;;;;3.37;2.30;;;16.80;52.90;;;;;;5009574;28;20507;-69
2023/02/20 02:13:21;;;;;;;1.93;1.80;;;16.80;52.90;;;;;;5014183;28;20768;-68
2023/02/20 02:15:51;;;;;;;2.20;1.90;;;16.80;52.80;;;;;;5014040;28;20414;-68
2023/02/20 02:18:58;;;;;;;4.07;2.00;;;16.80;52.80;;;;;;5014282;28;20521;-68
2023/02/20 02:21:44;;;;;;;1.87;1.70;;;16.80;52.80;;;;;;4981079;28;21004;-68
2023/02/20 02:24:31;;;;;;;2.03;1.73;;;16.80;52.90;;;;;;5013787;28;20410;-68
2023/02/20 02:27:34;;;;;;;2.27;1.60;;;16.80;52.90;;;;;;5013717;28;20407;-68
2023/02/20 02:30:18;;;;;;;1.73;1.63;;;16.80;52.90;;;;;;5013834;28;20411;-68
2023/02/20 02:33:05;;;;;;;1.93;1.63;;;16.80;52.90;;;;;;5013684;28;20407;-68
2023/02/20 02:36:12;;;;;;;2.63;1.83;;;16.70;52.80;;;;;;5013675;28;20407;-68
2023/02/20 02:38:59;;;;;;;1.63;1.50;;;16.70;52.80;;;;;;5013600;28;20551;-68
2023/02/20 02:41:59;;;;;;;2.57;1.77;;;16.70;52.80;;;;;;5012406;28;20447;-68
2023/02/20 02:44:32;;;;;;;1.83;1.30;;;16.70;52.80;;;;;;5013900;28;20455;-68
2023/02/20 02:47:03;;;;;;;2.20;1.50;;;16.70;52.80;;;;;;5013687;28;20431;-68
2023/02/20 02:49:52;;;;;;;1.97;1.70;;;16.70;52.80;;;;;;5013694;28;20491;-68
2023/02/20 02:55:09;;;;;;;2.10;1.87;;;16.70;52.80;;;;;;5014022;28;20953;-69
2023/02/20 02:57:34;;;;;;;2.33;2.03;;;16.70;52.80;;;;;;5013175;28;20424;-68
2023/02/20 03:00:07;;;;;;;2.00;1.60;;;16.70;52.80;;;;;;5013328;28;20795;-68
2023/02/20 03:02:41;;;;;;;1.97;1.70;;;16.70;52.80;;;;;;5013188;28;20181;-68
2023/02/20 03:05:11;;;;;;;2.10;1.80;;;16.70;52.80;;;;;;5013195;28;20439;-68
2023/02/20 03:07:39;;;;;;;1.80;1.60;;;16.70;52.80;;;;;;5011639;28;20528;-66
2023/02/20 03:10:08;;;;;;;2.70;2.00;;;16.70;52.70;;;;;;5013209;28;20408;-66
2023/02/20 03:12:41;;;;;;;1.83;1.60;;;16.70;52.70;;;;;;5012822;28;20487;-66
2023/02/20 03:15:34;;;;;;;2.50;1.90;;;16.70;52.70;;;;;;5013073;28;20452;-69
2023/02/20 03:18:21;;;;;;;1.90;1.43;;;16.70;52.70;;;;;;5011863;28;20443;-68
2023/02/20 03:21:06;;;;;;;2.20;1.50;;;16.70;52.70;;;;;;5012990;28;20464;-68
2023/02/20 03:23:37;;;;;;;2.27;2.07;;;16.70;52.70;;;;;;5013019;28;20803;-68
2023/02/20 03:26:09;;;;;;;2.27;1.53;;;16.70;52.70;;;;;;5012851;28;20455;-68
2023/02/20 03:28:42;;;;;;;1.93;1.50;;;16.70;52.70;;;;;;5012653;28;20427;-68
2023/02/20 03:31:16;;;;;;;2.10;1.67;;;16.70;52.70;;;;;;5013342;28;20404;-67
2023/02/20 03:45:29;;;;;;;2.30;1.80;;;16.70;52.70;;;;;;5013262;28;21032;-68
2023/02/20 03:48:00;;;;;;;2.57;1.73;;;16.70;52.70;;;;;;5012921;28;20479;-68
2023/02/20 03:53:11;;;;;;;2.47;1.93;;;16.70;52.70;;;;;;5013284;28;20994;-68
2023/02/20 03:55:37;;;;;;;2.07;1.83;;;16.60;52.60;;;;;;5012894;28;20491;-68
2023/02/20 03:58:06;;;;;;;2.70;2.30;;;16.70;52.60;;;;;;5011364;28;20864;-68
2023/02/20 04:00:37;;;;;;;1.90;1.67;;;16.70;52.60;;;;;;5012815;28;20180;-68
2023/02/20 04:03:12;;;;;;;1.97;1.53;;;16.60;52.60;;;;;;5012601;28;20419;-69
2023/02/20 04:05:41;;;;;;;2.20;1.70;;;16.70;52.60;;;;;;5012752;28;20508;-68
2023/02/20 04:08:15;;;;;;;2.50;1.77;;;16.70;52.70;;;;;;5012276;28;20993;-68
2023/02/20 04:10:50;;;;;;;1.80;1.50;;;16.70;52.60;;;;;;5013164;28;20456;-68
2023/02/20 04:13:17;;;;;;;2.33;2.00;;;16.70;52.50;;;;;;5012255;28;20411;-68
2023/02/20 04:15:44;;;;;;;2.07;1.87;;;16.70;52.60;;;;;;5012508;28;20414;-69
2023/02/20 04:18:12;;;;;;;1.83;1.70;;;16.70;52.50;;;;;;5012483;28;20451;-68
2023/02/20 04:20:38;;;;;;;3.03;2.10;;;16.70;52.60;;;;;;5012715;28;20772;-68
2023/02/20 04:23:16;;;;;;;2.10;1.90;;;16.60;52.50;;;;;;5012493;28;20410;-68
2023/02/20 04:25:52;;;;;;;2.20;1.80;;;16.70;52.50;;;;;;5012098;28;20302;-68
2023/02/20 04:28:18;;;;;;;2.87;2.10;;;16.60;52.40;;;;;;5012261;28;20427;-68
2023/02/20 04:30:44;;;;;;;3.20;1.67;;;16.60;52.40;;;;;;5012294;28;20824;-68
2023/02/20 04:33:12;;;;;;;2.37;1.50;;;16.60;52.40;;;;;;5011999;28;20408;-68
2023/02/20 04:35:38;;;;;;;1.97;1.80;;;16.60;52.40;;;;;;5011376;28;20172;-68
2023/02/20 04:38:04;;;;;;;1.90;1.60;;;16.60;52.40;;;;;;5011834;28;20435;-68
2023/02/20 04:40:30;;;;;;;2.00;1.80;;;16.60;52.40;;;;;;5011943;28;20423;-68
2023/02/20 04:42:55;;;;;;;2.13;1.80;;;16.60;52.40;;;;;;5012045;28;20185;-68
2023/02/20 04:45:21;;;;;;;1.83;1.47;;;16.60;52.40;;;;;;5011513;28;20203;-66
2023/02/20 04:47:46;;;;;;;2.07;1.67;;;16.60;52.40;;;;;;5011794;28;20249;-67
2023/02/20 04:50:20;;;;;;;2.23;2.03;;;16.60;52.40;;;;;;5012308;28;20221;-67
2023/02/20 04:52:45;;;;;;;1.90;1.80;;;16.60;52.40;;;;;;5011051;28;20565;-67
2023/02/20 04:55:11;;;;;;;2.00;1.80;;;16.60;52.40;;;;;;5012193;28;20416;-66
2023/02/20 04:57:36;;;;;;;2.27;1.80;;;16.60;52.40;;;;;;5011903;28;20200;-67
2023/02/20 05:00:04;;;;;;;2.10;1.90;;;16.60;52.30;;;;;;5012341;28;20191;-67
2023/02/20 05:02:30;;;;;;;2.43;1.93;;;16.60;52.30;;;;;;5011970;28;20173;-67
2023/02/20 05:04:55;;;;;;;2.60;1.97;;;16.60;52.30;;;;;;5010591;28;20563;-67
2023/02/20 05:09:46;;;;;;;2.53;1.80;;;16.60;52.30;;;;;;5063207;23;20588;-65
2023/02/20 05:12:12;;;;;;;1.70;1.60;;;16.60;52.30;;;;;;5030724;28;20266;-65
2023/02/20 05:14:38;;;;;;;1.80;1.70;;;16.60;52.30;;;;;;5030938;28;20683;-65
2023/02/20 05:17:03;;;;;;;1.90;1.70;;;16.60;52.30;;;;;;5030818;28;20176;-65
2023/02/20 05:19:29;;;;;;;2.83;1.80;;;16.60;52.30;;;;;;5030504;28;20188;-65
2023/02/20 05:24:41;;;;;;;3.30;2.20;;;16.60;52.20;;;;;;5030508;28;20398;-65
2023/02/20 05:27:06;;;;;;;3.20;1.90;;;16.60;52.20;;;;;;5030708;28;20406;-65
2023/02/20 05:29:32;;;;;;;1.97;1.87;;;16.60;52.20;;;;;;5030677;28;20841;-65
2023/02/20 05:31:57;;;;;;;2.70;2.50;;;16.60;52.20;;;;;;5030575;28;20182;-65
2023/02/20 05:34:24;;;;;;;2.30;2.07;;;16.50;52.20;;;;;;5029236;28;20172;-65
2023/02/20 05:36:50;;;;;;;2.73;1.90;;;16.60;52.20;;;;;;5030679;28;20544;-65
2023/02/20 05:39:16;;;;;;;3.57;1.70;;;16.60;52.20;;;;;;5030360;28;20832;-65
2023/02/20 05:41:42;;;;;;;2.20;2.00;;;16.60;52.20;;;;;;5030632;28;20414;-65
2023/02/20 05:44:07;;;;;;;2.10;1.90;;;16.60;52.20;;;;;;5030828;28;20260;-64
2023/02/20 05:46:40;;;;;;;2.73;1.90;;;16.60;52.20;;;;;;5031918;28;20503;-65
2023/02/20 05:49:05;;;;;;;3.43;2.23;;;16.60;52.20;;;;;;5033776;28;20204;-65
2023/02/20 05:51:31;;;;;;;2.60;1.90;;;16.60;52.20;;;;;;5034029;28;20420;-65
2023/02/20 05:53:56;;;;;;;3.40;2.10;;;16.60;52.20;;;;;;5033713;28;20632;-65
2023/02/20 05:56:23;;;;;;;2.17;1.90;;;16.60;52.20;;;;;;5034008;28;20176;-65
2023/02/20 05:58:49;;;;;;;2.30;1.80;;;16.60;52.10;;;;;;5033572;28;20195;-65
2023/02/20 06:01:24;;;;;;;2.60;1.67;;;16.60;52.10;;;;;;5033794;28;20409;-65
2023/02/20 06:03:50;;;;;;;2.37;1.80;;;16.60;52.10;;;;;;5033640;28;20418;-65
2023/02/20 06:06:17;;;;;;;2.33;1.90;;;16.60;52.10;;;;;;5033768;28;20885;-65
2023/02/20 06:08:43;;;;;;;2.13;1.87;;;16.50;52.00;;;;;;5033356;28;20461;-65
2023/02/20 06:11:10;;;;;;;2.10;1.90;;;16.50;52.00;;;;;;5033597;28;20429;-66
2023/02/20 06:13:38;;;;;;;2.60;2.40;;;16.50;52.00;;;;;;5033804;28;20415;-66
2023/02/20 06:16:04;;;;;;;2.53;2.20;;;16.50;52.00;;;;;;5033881;28;20505;-66
2023/02/20 06:18:29;;;;;;;3.10;1.83;;;16.50;52.00;;;;;;5033561;28;20534;-66
2023/02/20 06:20:55;;;;;;;2.70;2.03;;;16.50;52.00;;;;;;5033748;28;20421;-66
2023/02/20 06:23:21;;;;;;;1.90;1.70;;;16.50;52.00;;;;;;5034022;28;20762;-67
2023/02/20 06:25:47;;;;;;;2.30;1.80;;;16.50;52.00;;;;;;5033534;28;20450;-66
2023/02/20 06:28:12;;;;;;;2.00;1.80;;;16.50;52.00;;;;;;5033611;28;20195;-65
2023/02/20 06:30:38;;;;;;;2.83;1.97;;;16.50;52.00;;;;;;5034333;28;20183;-66
2023/02/20 06:33:03;;;;;;;2.50;2.17;;;16.50;52.00;;;;;;5033917;28;20257;-66
2023/02/20 06:35:29;;;;;;;5.03;2.43;;;16.50;52.00;;;;;;5033544;28;20214;-65
2023/02/20 06:37:55;;;;;;;2.57;1.90;;;16.50;52.00;;;;;;5033443;28;20774;-66
2023/02/20 06:40:20;;;;;;;3.20;2.20;;;16.50;51.90;;;;;;5033559;28;20213;-66
2023/02/20 06:42:46;;;;;;;1.90;1.70;;;16.50;52.00;;;;;;5033016;28;20180;-65
2023/02/20 06:45:12;;;;;;;2.10;1.80;;;16.50;51.90;;;;;;5032989;28;20199;-65
2023/02/20 06:47:37;;;;;;;1.97;1.77;;;16.50;51.90;;;;;;5033063;28;20176;-67
2023/02/20 06:50:03;;;;;;;2.23;1.57;;;16.50;51.90;;;;;;5033259;28;20186;-70
2023/02/20 06:52:29;;;;;;;2.47;1.83;;;16.50;51.90;;;;;;5033439;28;20225;-69
2023/02/20 06:54:54;;;;;;;2.20;1.90;;;16.50;51.90;;;;;;5033357;28;20418;-70
2023/02/20 06:57:20;;;;;;;3.50;1.90;;;16.50;51.90;;;;;;5032388;28;20258;-69
2023/02/20 06:59:46;;;;;;;2.13;1.90;;;16.50;51.90;;;;;;5032829;28;20231;-66
2023/02/20 07:02:13;;;;;;;2.30;2.10;;;16.50;51.90;;;;;;5033421;28;20229;-65
2023/02/20 07:04:39;;;;;;;2.60;2.20;;;16.40;51.80;;;;;;5033076;28;20543;-66
2023/02/20 07:07:05;;;;;;;2.03;1.80;;;16.40;51.80;;;;;;5032835;28;20414;-66
2023/02/20 07:09:30;;;;;;;3.80;2.30;;;16.50;51.80;;;;;;5031420;28;20583;-66
2023/02/20 07:11:56;;;;;;;2.57;1.70;;;16.50;51.90;;;;;;5032969;28;20180;-66
2023/02/20 07:14:22;;;;;;;2.57;2.00;;;16.50;51.80;;;;;;5032606;28;20679;-65
2023/02/20 07:16:48;;;;;;;2.37;2.00;;;16.40;51.80;;;;;;5032685;28;20184;-66
2023/02/20 07:19:14;;;;;;;2.20;2.00;;;16.40;51.80;;;;;;5032720;28;20487;-66
2023/02/20 07:21:39;;;;;;;1.90;1.80;;;16.40;51.70;;;;;;5032667;28;20172;-66
2023/02/20 07:24:06;;;;;;;2.67;1.90;;;16.40;51.80;;;;;;5032407;28;20172;-65
2023/02/20 07:26:31;;;;;;;5.27;2.23;;;16.40;51.80;;;;;;5032359;28;20545;-66
2023/02/20 07:28:59;;;;;;;2.30;1.70;;;16.40;51.70;;;;;;5032429;28;20436;-66
2023/02/20 07:31:26;;;;;;;3.03;1.87;;;16.40;51.70;;;;;;5032734;28;20547;-66
2023/02/20 07:33:51;;;;;;;3.27;1.77;;;16.40;51.80;;;;;;5032741;28;20403;-66
2023/02/20 07:36:17;;;;;;;1.93;1.70;;;16.40;51.80;;;;;;5032501;28;20418;-65
2023/02/20 07:38:55;;;;;;;2.30;2.00;;;16.40;51.70;;;;;;5032447;28;20207;-65
2023/02/20 07:41:22;;;;;;;2.37;1.90;;;16.40;51.70;;;;;;5032606;28;20248;-66
2023/02/20 07:43:48;;;;;;;2.27;1.63;;;16.40;52.20;;;;;;5032368;28;20511;-66
2023/02/20 07:46:13;;;;;;;3.13;1.97;;;16.40;51.70;;;;;;5032489;28;20486;-65
2023/02/20 07:48:39;;;;;;;2.90;2.20;;;16.40;51.70;;;;;;5032235;28;20226;-66
2023/02/20 07:51:04;;;;;;;2.60;1.80;;;16.40;51.70;;;;;;5032144;28;20651;-66
2023/02/20 07:53:30;;;;;;;2.33;2.13;;;16.40;51.70;;;;;;5032145;28;20168;-64
2023/02/20 07:55:56;;;;;;;1.70;1.60;;;16.40;51.70;;;;;;5032702;28;20183;-65
2023/02/20 07:58:21;;;;;;;2.07;1.77;;;16.40;51.70;;;;;;5032034;28;20287;-65
2023/02/20 08:00:50;;;;;;;2.43;2.20;;;16.40;51.70;;;;;;5032138;28;20621;-70
2023/02/20 08:03:16;;;;;;;7.23;3.90;;;16.40;51.70;;;;;;5032087;28;20552;-70
2023/02/20 08:05:42;;;;;;;7.97;4.50;;;16.10;50.30;;;;;;5031804;28;20460;-69
2023/02/20 08:08:07;;;;;;;8.50;4.83;;;15.90;50.10;;;;;;5031402;28;20293;-66
2023/02/20 08:10:33;;;;;;;9.23;5.57;;;15.60;50.10;;;;;;5031286;28;20914;-68
2023/02/20 08:12:59;;;;;;;5.67;4.20;;;15.60;50.40;;;;;;5032128;28;20229;-69
2023/02/20 08:15:24;;;;;;;5.80;4.27;;;15.60;50.60;;;;;;5031612;28;20288;-68
2023/02/20 08:17:50;;;;;;;5.07;4.23;;;15.60;50.70;;;;;;5031880;28;20230;-67
2023/02/20 08:20:18;;;;;;;6.77;4.10;;;15.70;50.90;;;;;;5031849;28;20179;-66
2023/02/20 08:22:44;;;;;;;9.20;4.20;;;15.70;50.90;;;;;;5031942;28;20200;-66
2023/02/20 08:25:11;;;;;;;4.10;3.80;;;15.80;51.00;;;;;;5031685;28;20481;-65
2023/02/20 08:27:40;;;;;;;7.60;3.90;;;15.80;51.00;;;;;;5031720;28;20406;-66
2023/02/20 08:30:06;;;;;;;5.13;3.83;;;15.90;51.00;;;;;;5031678;28;20421;-68
2023/02/20 08:32:32;;;;;;;4.53;3.50;;;15.90;50.90;;;;;;5031648;28;20407;-68
2023/02/20 08:34:57;;;;;;;5.77;3.50;;;16.00;50.90;;;;;;5031319;28;20460;-68
2023/02/20 08:37:23;;;;;;;5.03;3.87;;;16.00;50.80;;;;;;5031175;28;20179;-68
2023/02/20 08:39:48;;;;;;;3.80;3.17;;;16.10;50.90;;;;;;5031310;28;20179;-69
2023/02/20 08:42:17;;;;;;;5.13;3.17;;;16.20;50.80;;;;;;5031335;28;20176;-68
2023/02/20 08:44:43;;;;;;;4.47;3.37;;;16.20;50.80;;;;;;5031131;28;20199;-69
2023/02/20 08:47:08;;;;;;;3.37;3.07;;;16.30;50.90;;;;;;5031188;28;20891;-68
2023/02/20 08:49:34;;;;;;;5.40;3.70;;;16.30;50.80;;;;;;5031053;28;20197;-68
2023/02/20 08:52:02;;;;;;;3.67;2.67;;;16.30;50.70;;;;;;5031483;28;20644;-68
2023/02/20 08:54:27;;;;;;;4.60;2.83;;;16.40;50.80;;;;;;5030997;28;20179;-69
2023/02/20 08:56:53;;;;;;;3.03;2.57;;;16.40;50.70;;;;;;5031030;28;20410;-68
2023/02/20 08:59:19;;;;;;;3.50;3.17;;;16.40;50.70;;;;;;5030876;28;20194;-68
2023/02/20 09:01:44;;;;;;;6.13;3.07;;;16.50;50.80;;;;;;5030979;28;20171;-68
2023/02/20 09:04:10;;;;;;;4.07;2.87;;;16.50;50.70;;;;;;5031081;28;20180;-68
2023/02/20 09:06:36;;;;;;;4.53;3.40;;;16.50;50.80;;;;;;5030722;28;20207;-69
2023/02/20 09:09:02;;;;;;;6.20;2.87;;;16.50;50.80;;;;;;5030639;28;20211;-68
2023/02/20 09:11:28;;;;;;;6.03;2.80;;;16.60;50.80;;;;;;5030994;28;20442;-68
2023/02/20 09:13:54;;;;;;;9.83;3.20;;;16.60;50.80;;;;;;5030918;28;20448;-64
2023/02/20 09:16:22;;;;;;;6.00;3.47;;;16.50;49.80;;;;;;5030748;28;20179;-64
2023/02/20 09:18:49;;;;;;;7.10;3.90;;;16.10;47.90;;;;;;5030582;28;20195;-65
2023/02/20 09:21:18;;;;;;;5.63;3.40;;;15.60;47.70;;;;;;5030490;28;20436;-65
2023/02/20 09:23:44;;;;;;;4.93;3.17;;;15.20;48.20;;;;;;5030699;28;20413;-65
2023/02/20 09:26:10;;;;;;;4.17;3.37;;;15.20;48.70;;;;;;5030630;28;20450;-64
2023/02/20 09:28:36;;;;;;;7.67;3.13;;;15.20;49.10;;;;;;5030428;28;20477;-64
2023/02/20 09:31:03;;;;;;;3.23;2.57;;;15.20;49.30;;;;;;5030736;28;20430;-64
2023/02/20 09:33:28;;;;;;;4.23;3.40;;;15.30;49.40;;;;;;5030706;28;20653;-66
2023/02/20 09:35:54;;;;;;;9.63;2.67;;;15.40;49.50;;;;;;5030770;28;20418;-65
2023/02/20 09:38:21;;;;;;;4.60;2.50;;;15.50;49.60;;;;;;5030390;28;20187;-65
2023/02/20 09:40:54;;;;;;;4.17;2.57;;;15.60;49.60;;;;;;5030442;28;20467;-64
2023/02/20 09:43:39;;;;;;;6.00;2.23;;;15.80;49.70;;;;;;5030625;28;20406;-64
2023/02/20 09:46:15;;;;;;;5.67;2.57;;;15.80;49.60;;;;;;5030419;28;20458;-66
2023/02/20 09:49:13;;;;;;;2.83;2.33;;;16.00;49.70;;;;;;5030515;28;20425;-64
2023/02/20 09:51:43;;;;;;;3.10;2.13;;;16.10;49.70;;;;;;5030422;28;20418;-64
2023/02/20 09:54:14;;;;;;;2.50;2.07;;;16.10;49.60;;;;;;5030767;28;20402;-65
2023/02/20 09:56:45;;;;;;;3.07;2.47;;;16.20;49.80;;;;;;5030285;28;20421;-65
2023/02/20 09:59:17;;;;;;;6.97;2.43;;;16.30;49.80;;;;;;5030355;28;20995;-67
2023/02/20 10:02:02;;;;;;;2.90;2.10;;;16.40;49.80;;;;;;5030476;28;20825;-66
2023/02/20 10:04:34;;;;;;;4.20;2.00;;;16.40;49.80;;;;;;5030252;28;20406;-66
2023/02/20 10:07:37;;;;;;;2.33;1.80;;;16.40;49.70;;;;;;5030349;28;20395;-66
2023/02/20 10:10:23;;;;;;;2.03;1.80;;;16.50;49.80;;;;;;4988920;28;20461;-66
2023/02/20 10:13:19;;;;;;;3.93;1.83;;;16.50;49.80;;;;;;5027861;28;20499;-67
2023/02/20 10:16:26;;;;;;;2.63;1.90;;;16.60;49.90;;;;;;5030035;28;20462;-69
2023/02/20 10:19:16;;;;;;;3.80;2.20;;;16.60;49.90;;;;;;5030338;28;20432;-69
2023/02/20 10:22:06;;;;;;;6.30;2.40;;;16.60;49.90;;;;;;5029962;28;20401;-69
2023/02/20 10:24:38;;;;;;;4.50;2.27;;;16.60;50.00;;;;;;5030106;28;20421;-69
2023/02/20 10:27:22;;;;;;;4.10;1.93;;;16.70;50.00;;;;;;5030037;28;20405;-68
2023/02/20 10:29:48;;;;;;;2.40;1.70;;;16.70;50.00;;;;;;5029959;28;20421;-69
2023/02/20 10:32:42;;;;;;;2.50;1.47;;;16.70;50.10;;;;;;5030792;28;20406;-69
2023/02/20 10:35:12;;;;;;;1.67;1.40;;;16.80;50.10;;;;;;5031991;28;20881;-69
2023/02/20 10:37:43;;;;;;;2.63;1.53;;;16.70;50.00;;;;;;5032065;28;20745;-68
2023/02/20 10:40:18;;;;;;;2.83;1.73;;;16.70;50.10;;;;;;5033317;28;20407;-68
2023/02/20 10:42:52;;;;;;;5.60;2.07;;;16.80;50.10;;;;;;5032199;28;20514;-67
2023/02/20 10:45:47;;;;;;;2.70;2.00;;;16.90;50.20;;;;;;5033445;28;20456;-69
2023/02/20 10:48:16;;;;;;;2.20;1.60;;;16.90;50.20;;;;;;5029413;28;20469;-69
2023/02/20 10:51:07;;;;;;;3.60;1.90;;;16.90;50.10;;;;;;5033240;28;20410;-69
2023/02/20 10:53:37;;;;;;;2.57;1.60;;;17.00;50.20;;;;;;5033098;28;20466;-68
2023/02/20 10:56:18;;;;;;;2.70;1.37;;;17.00;50.10;;;;;;5032870;28;20417;-68
2023/02/20 10:59:17;;;;;;;2.00;1.43;;;17.10;50.10;;;;;;5031601;28;21039;-68
2023/02/20 11:01:45;;;;;;;3.70;1.53;;;17.10;50.20;;;;;;5032939;28;20734;-67
2023/02/20 11:04:25;;;;;;;2.77;1.80;;;17.10;50.20;;;;;;5032817;28;20403;-69
2023/02/20 11:06:59;;;;;;;4.10;2.10;;;17.20;50.30;;;;;;5032739;28;20765;-69
2023/02/20 11:09:25;;;;;;;2.30;1.30;;;17.20;50.30;;;;;;5032706;28;20442;-68
2023/02/20 11:11:53;;;;;;;2.80;1.40;;;17.30;50.30;;;;;;5033029;28;20410;-68
2023/02/20 11:14:32;;;;;;;2.93;1.50;;;17.30;50.30;;;;;;5032675;28;20175;-69
2023/02/20 11:17:15;;;;;;;3.23;1.30;;;17.30;50.20;;;;;;5032797;28;20455;-68
2023/02/20 11:19:54;;;;;;;1.90;1.37;;;17.40;50.20;;;;;;5032583;28;20490;-69
2023/02/20 11:22:50;;;;;;;2.50;1.80;;;17.30;50.20;;;;;;5031467;28;20418;-69
2023/02/20 11:25:25;;;;;;;1.90;1.53;;;17.30;50.40;;;;;;5032610;28;20842;-65
2023/02/20 11:27:55;;;;;;;2.10;1.60;;;17.30;50.30;;;;;;5032823;28;20851;-68
2023/02/20 11:30:29;;;;;;;2.73;1.50;;;17.30;50.30;;;;;;5033448;28;20759;-65
2023/02/20 11:33:20;;;;;;;2.70;1.70;;;17.30;50.30;;;;;;5032637;28;20391;-67
2023/02/20 11:35:49;;;;;;;2.00;1.07;;;17.40;50.30;;;;;;5033210;28;20446;-69
2023/02/20 11:38:25;;;;;;;2.70;1.40;;;17.40;50.30;;;;;;5032744;28;20430;-67
2023/02/20 11:40:55;;;;;;;2.20;1.30;;;17.40;50.30;;;;;;5031172;28;20939;-69
2023/02/20 11:43:23;;;;;;;2.20;1.53;;;17.40;50.30;;;;;;5031185;28;20411;-67
2023/02/20 11:45:53;;;;;;;2.90;1.37;;;17.40;50.40;;;;;;5032054;28;20454;-68
2023/02/20 11:48:20;;;;;;;5.80;1.50;;;17.40;50.40;;;;;;5046821;23;20493;-66
2023/02/20 11:50:50;;;;;;;2.53;1.40;;;17.30;50.30;;;;;;5012443;28;20483;-66
2023/02/20 11:53:24;;;;;;;2.63;1.33;;;17.40;50.40;;;;;;5013230;28;20398;-66
2023/02/20 11:56:16;;;;;;;3.30;1.60;;;17.30;50.30;;;;;;5013636;28;20406;-66
2023/02/20 11:58:44;;;;;;;3.67;1.43;;;17.40;50.50;;;;;;5012813;28;20460;-66
2023/02/20 12:01:33;;;;;;;1.50;1.23;;;17.30;50.40;;;;;;5013245;28;20770;-66
2023/02/20 12:03:59;;;;;;;3.57;1.70;;;17.40;50.50;;;;;;5013274;28;20498;-66
2023/02/20 12:06:41;;;;;;;3.03;1.30;;;17.40;50.50;;;;;;5013716;28;20869;-66
2023/02/20 12:09:13;;;;;;;1.37;1.20;;;17.40;50.60;;;;;;5013196;28;20443;-66
2023/02/20 12:11:39;;;;;;;3.10;1.40;;;17.40;50.70;;;;;;5012000;28;20420;-66
2023/02/20 12:14:11;;;;;;;2.43;1.60;;;17.40;50.80;;;;;;5012998;28;20448;-65
2023/02/20 12:16:48;;;;;;;2.93;1.60;;;17.50;50.80;;;;;;5012788;28;20172;-65
2023/02/20 12:19:19;;;;;;;3.53;1.50;;;17.60;51.00;;;;;;5012726;28;20431;-66
2023/02/20 12:22:11;;;;;;;3.50;1.70;;;17.60;51.00;;;;;;5012730;28;20411;-66
2023/02/20 12:25:11;;;;;;;3.67;2.07;;;17.70;51.10;;;;;;5012742;28;20905;-66
2023/02/20 12:28:07;;;;;;;3.07;1.77;;;17.80;51.10;;;;;;4975868;28;20860;-66
2023/02/20 12:31:02;;;;;;;1.90;1.50;;;17.80;51.00;;;;;;5012573;28;20443;-65
2023/02/20 12:33:47;;;;;;;1.90;1.70;;;17.80;51.00;;;;;;5012825;28;20404;-65
2023/02/20 12:36:27;;;;;;;2.10;1.53;;;17.90;50.90;;;;;;5012536;28;20414;-65
2023/02/20 12:39:34;;;;;;;3.63;1.40;;;18.00;50.90;;;;;;5012188;28;20836;-65
2023/02/20 12:42:08;;;;;;;2.30;1.63;;;18.00;50.80;;;;;;5007068;28;20428;-65
2023/02/20 12:45:15;;;;;;;2.47;1.60;;;18.00;50.80;;;;;;5012073;28;20413;-66
2023/02/20 12:47:43;;;;;;;2.90;1.70;;;18.10;50.80;;;;;;4997953;28;20442;-65
2023/02/20 12:50:27;;;;;;;3.90;1.83;;;18.20;50.90;;;;;;5010405;28;20810;-66
2023/02/20 12:53:10;;;;;;;2.10;1.47;;;18.20;50.80;;;;;;5011476;28;20413;-66
2023/02/20 12:55:43;;;;;;;2.27;1.63;;;18.30;50.80;;;;;;5011676;28;20434;-65
2023/02/20 12:58:15;;;;;;;1.93;1.53;;;18.40;50.70;;;;;;5012441;28;20443;-65
2023/02/20 13:00:45;;;;;;;3.00;1.63;;;18.40;50.60;;;;;;5012440;28;20465;-65
2023/02/20 13:03:14;;;;;;;2.90;1.43;;;18.50;50.40;;;;;;5010628;28;20792;-65
2023/02/20 13:05:44;;;;;;;2.47;1.70;;;18.60;50.40;;;;;;5011902;28;20467;-65
2023/02/20 13:08:28;;;;;;;3.27;1.63;;;18.60;50.30;;;;;;5010131;28;20438;-66
2023/02/20 13:10:59;;;;;;;3.30;1.80;;;18.70;50.20;;;;;;5011539;28;20414;-67
2023/02/20 13:13:39;;;;;;;4.50;1.50;;;18.70;50.20;;;;;;5011577;28;20408;-65
2023/02/20 13:16:24;;;;;;;5.30;1.70;;;18.80;50.60;;;;;;5011626;28;20403;-65
2023/02/20 13:19:18;;;;;;;4.60;2.00;;;18.80;50.40;;;;;;5011432;28;20799;-65
2023/02/20 13:21:44;;;;;;;2.53;1.60;;;18.90;50.30;;;;;;5011030;28;20968;-65
2023/02/20 13:24:19;;;;;;;2.43;1.43;;;18.90;50.20;;;;;;5011432;28;20443;-65
2023/02/20 13:26:51;;;;;;;4.67;1.87;;;18.90;50.20;;;;;;5011337;28;20207;-65
2023/02/20 13:29:24;;;;;;;2.10;1.40;;;19.00;50.20;;;;;;5011108;28;20459;-66
2023/02/20 13:31:54;;;;;;;3.77;1.63;;;19.00;50.10;;;;;;5011345;28;20431;-66